SKBQ/BAQ METAR and TAF weather

Enter ICAO airport designator
Station Type Date Time Source
SKBQ METAR 2021/07/31 00:00 UTC NOAA

SKBQ 310000Z 01008KT 340V040 9999 FEW015 SCT070 28/25 Q1010 NOSIG RMK A2985


Station Type Date Time Source
SKBQ Decoded METAR 2021/07/31 00:00 UTC NOAA

Barranquilla / Ernestocortissoz, Colombia (SKBQ) 10-53N 074-47W 30M
Jul 30, 2021 - 08:00 PM EDT / 2021.07.31 0000 UTC
Wind: from the N (010 degrees) at 9 MPH (8 KT) (direction variable):0
Visibility: greater than 7 mile(s):0
Sky conditions: partly cloudy
Temperature: 82 F (28 C)
Dew Point: 77 F (25 C)
Relative Humidity: 83%
Pressure (altimeter): 29.83 in. Hg (1010 hPa)
ob: SKBQ 310000Z 01008KT 340V040 9999 FEW015 SCT070 28/25 Q1010 NOSIG RMK A2985
cycle: 0

Station Type Date Time Source
SKBQ TAF 2021/07/31 00:00 UTC NOAA

TAF SKBQ 302230Z 3100/3124 02010KT 9999 SCT015
TEMPO 3110/3112 5000 BR BKN008 TX33/3117Z TN26/3109Z

Example: see airport list